Terminal Aerodrome Forecast
Issued by NWS

Current Version | Previous Version | Text Only | Print | Product List | Glossary Off
Versions: 1 2 3 4 5 6 7 8 9 10 11 12 13 14

000
FTUS41 KPBZ 191400 AAA
TAFHLG
TAF AMD
KHLG 191435Z 1915/2012 25006KT P6SM OVC009
     FM191900 28007KT P6SM OVC015
     FM200500 27002KT P6SM OVC025=

USA.gov is the U.S. government's official web portal to all federal, state and local government web resources and services.